createdAt,value
2023-03-30T00:04:54.507Z,93679.36
2023-03-30T00:10:03.337Z,93674.77
2023-03-30T00:15:12.697Z,93683.36
2023-03-30T00:20:19.819Z,93670.78
2023-03-30T00:25:26.554Z,93663.78
2023-03-30T00:30:33.372Z,93674.63
2023-03-30T00:35:40.401Z,93655.70
2023-03-30T00:40:56.759Z,93648.81
2023-03-30T00:46:04.225Z,93638.84
2023-03-30T00:51:14.379Z,93644.85
2023-03-30T00:56:24.970Z,93642.13
2023-03-30T01:01:35.474Z,93651.73
2023-03-30T01:06:43.935Z,93657.24
2023-03-30T01:11:51.430Z,93652.53
2023-03-30T01:17:20.662Z,93643.88
2023-03-30T01:22:51.256Z,93647.52
2023-03-30T01:28:17.812Z,93638.17
2023-03-30T01:33:51.302Z,93619.09
2023-03-30T01:39:30.705Z,93612.80
2023-03-30T01:44:56.893Z,93609.09
2023-03-30T01:50:22.642Z,93609.68
2023-03-30T01:55:51.869Z,93614.19
2023-03-30T02:01:01.251Z,93430.27
2023-03-30T02:06:34.571Z,93597.53
2023-03-30T02:11:46.162Z,93593.70
2023-03-30T02:16:57.535Z,93600.34
2023-03-30T02:22:04.665Z,93582.56
2023-03-30T02:27:12.908Z,93582.81
2023-03-30T02:32:23.162Z,93591.33
2023-03-30T02:37:58.357Z,93581.58
2023-03-30T02:43:48.667Z,93587.42
2023-03-30T02:49:17.459Z,93581.79
2023-03-30T02:54:49.517Z,93579.38
2023-03-30T03:00:02.914Z,93578.66
2023-03-30T03:05:15.169Z,93585.22
2023-03-30T03:10:22.196Z,93566.75
2023-03-30T03:15:29.193Z,93551.14
2023-03-30T03:20:36.062Z,93543.80
2023-03-30T03:25:42.748Z,93563.30
2023-03-30T03:30:51.272Z,93559.41
2023-03-30T03:35:59.851Z,93549.36
2023-03-30T03:41:07.526Z,93549.09
2023-03-30T03:46:14.439Z,93541.06
2023-03-30T03:51:21.153Z,93545.09
2023-03-30T03:56:28.440Z,93547.07
2023-03-30T04:01:35.263Z,93551.30
2023-03-30T04:06:42.028Z,93546.64
2023-03-30T04:11:48.847Z,93562.60
2023-03-30T04:16:57.218Z,93537.99
2023-03-30T04:22:05.631Z,93526.94
2023-03-30T04:27:15.055Z,93548.13
2023-03-30T04:32:21.844Z,93548.03
2023-03-30T04:37:31.516Z,93547.10
2023-03-30T04:42:38.692Z,93546.03
2023-03-30T04:47:46.925Z,93545.13
2023-03-30T04:52:53.678Z,93538.06
2023-03-30T04:58:00.423Z,93541.38
2023-03-30T05:03:08.065Z,93536.48
2023-03-30T05:08:17.032Z,93533.28
2023-03-30T05:13:23.861Z,93523.42
2023-03-30T05:18:31.440Z,93547.19
2023-03-30T05:23:40.047Z,93536.76
2023-03-30T05:28:49.472Z,93543.50
2023-03-30T05:33:56.253Z,93543.61
2023-03-30T05:39:04.865Z,93378.16
2023-03-30T05:44:11.619Z,93540.56
2023-03-30T05:49:18.360Z,93542.17
2023-03-30T05:54:26.929Z,93546.72
2023-03-30T05:59:34.752Z,93553.36
2023-03-30T06:04:42.452Z,93554.22
2023-03-30T06:09:49.530Z,93553.47
2023-03-30T06:14:56.746Z,93554.23
2023-03-30T06:20:06.093Z,93545.59
2023-03-30T06:25:13.934Z,93536.17
2023-03-30T06:30:20.705Z,93539.10
2023-03-30T06:35:27.670Z,93528.06
2023-03-30T06:40:34.360Z,93528.89
2023-03-30T06:45:41.117Z,93534.45
2023-03-30T06:50:51.841Z,93535.37
2023-03-30T06:56:00.796Z,93541.45
2023-03-30T07:01:17.613Z,93536.20
2023-03-30T07:06:24.646Z,93540.45
2023-03-30T07:11:31.350Z,93533.86
2023-03-30T07:16:38.615Z,93538.63
2023-03-30T07:21:45.322Z,93537.81
2023-03-30T07:26:52.647Z,93540.23
2023-03-30T07:31:59.392Z,93541.02
2023-03-30T07:42:14.161Z,93538.37
2023-03-30T07:47:21.077Z,93532.53
2023-03-30T07:52:28.101Z,93533.60
2023-03-30T07:57:35.170Z,93538.61
2023-03-30T08:02:42.886Z,93533.55
2023-03-30T08:07:49.824Z,93529.71
2023-03-30T08:12:57.098Z,93514.22
2023-03-30T08:18:05.601Z,93512.13
2023-03-30T08:23:21.832Z,93515.58
2023-03-30T08:28:29.263Z,93511.05
2023-03-30T08:33:38.736Z,93515.66
2023-03-30T08:38:47.449Z,93519.33
2023-03-30T08:44:22.731Z,93514.95
2023-03-30T08:49:32.096Z,93519.77
2023-03-30T08:54:59.973Z,93512.20
2023-03-30T09:00:40.563Z,93512.66
2023-03-30T09:05:57.445Z,93500.91
2023-03-30T09:11:21.016Z,93499.34
2023-03-30T09:16:54.170Z,93495.64
2023-03-30T09:22:03.926Z,93508.42
2023-03-30T09:27:19.247Z,93507.91
2023-03-30T09:32:31.130Z,93513.45
2023-03-30T09:37:38.667Z,93521.02
2023-03-30T09:42:55.533Z,93507.61
2023-03-30T09:48:11.033Z,93503.34
2023-03-30T09:53:25.398Z,93509.21
2023-03-30T09:58:36.599Z,93510.36
2023-03-30T10:03:47.524Z,93508.41
2023-03-30T10:08:57.472Z,93502.23
2023-03-30T10:14:06.082Z,93498.50
2023-03-30T10:19:25.336Z,93481.53
2023-03-30T10:24:34.397Z,93468.41
2023-03-30T10:29:50.554Z,93459.56
2023-03-30T10:35:02.482Z,93467.23
2023-03-30T10:40:28.740Z,93447.69
2023-03-30T10:46:03.498Z,93459.13
2023-03-30T10:51:19.015Z,93290.66
2023-03-30T10:56:33.097Z,93467.22
2023-03-30T11:01:57.095Z,93472.22
2023-03-30T11:07:04.780Z,93487.19
2023-03-30T11:12:19.763Z,93491.23
2023-03-30T11:17:39.618Z,93476.87
2023-03-30T11:22:50.514Z,93474.85
2023-03-30T11:28:18.246Z,93468.30
2023-03-30T11:33:32.345Z,93455.29
2023-03-30T11:38:57.267Z,93452.80
2023-03-30T11:44:03.778Z,93452.24
2023-03-30T11:49:20.254Z,93435.16
2023-03-30T11:54:59.852Z,93428.78
2023-03-30T12:00:32.999Z,93429.91
2023-03-30T12:05:52.143Z,93427.16
2023-03-30T12:11:13.067Z,93409.16
2023-03-30T12:16:25.620Z,93399.48
2023-03-30T12:21:54.788Z,93391.31
2023-03-30T12:27:06.109Z,93387.09
2023-03-30T12:32:28.355Z,93355.88
2023-03-30T12:37:38.697Z,93342.03
2023-03-30T12:43:04.524Z,93356.08
2023-03-30T12:48:30.890Z,93337.48
2023-03-30T12:53:54.307Z,93329.55
2023-03-30T12:59:36.662Z,93318.46
2023-03-30T13:04:46.886Z,93310.30
2023-03-30T13:10:00.598Z,93306.90
2023-03-30T13:15:33.346Z,93292.33
2023-03-30T13:20:50.848Z,93284.88
2023-03-30T13:26:15.187Z,93278.14
2023-03-30T13:31:49.902Z,93269.86
2023-03-30T13:37:06.571Z,93261.39
2023-03-30T13:42:46.163Z,93244.21
2023-03-30T13:48:15.235Z,93236.20
2023-03-30T13:53:22.645Z,93224.08
2023-03-30T13:58:35.364Z,93223.66
2023-03-30T14:03:45.102Z,93208.55
2023-03-30T14:09:02.425Z,93195.27
2023-03-30T14:14:11.372Z,93199.14
2023-03-30T14:19:28.064Z,93195.94
2023-03-30T14:24:37.092Z,93184.94
2023-03-30T14:29:52.350Z,93188.85
2023-03-30T14:34:59.420Z,93189.32
2023-03-30T14:40:08.581Z,93178.18
2023-03-30T14:45:20.953Z,93165.01
2023-03-30T14:50:30.244Z,93159.41
2023-03-30T14:55:38.296Z,93154.95
2023-03-30T15:00:46.436Z,93161.67
2023-03-30T15:06:00.000Z,93166.10
2023-03-30T15:11:17.577Z,93167.47
2023-03-30T15:16:28.760Z,93166.48
2023-03-30T15:21:38.463Z,93155.48
2023-03-30T15:26:48.684Z,93156.89
2023-03-30T15:32:20.012Z,93164.44
2023-03-30T15:37:26.966Z,93169.16
2023-03-30T15:42:36.740Z,93166.24
2023-03-30T15:47:44.438Z,93174.77
2023-03-30T15:52:56.289Z,93166.45
2023-03-30T15:58:04.743Z,93157.34
2023-03-30T16:03:14.679Z,93144.61
2023-03-30T16:08:21.714Z,93166.89
2023-03-30T16:13:28.567Z,93186.75
2023-03-30T16:18:35.233Z,93201.97
2023-03-30T16:23:42.444Z,93199.98
2023-03-30T16:28:53.447Z,93200.17
2023-03-30T16:34:00.346Z,93215.90
2023-03-30T16:39:10.636Z,93213.25
2023-03-30T16:44:18.955Z,93215.71
2023-03-30T16:49:28.034Z,93224.11
2023-03-30T16:54:35.168Z,93251.30
2023-03-30T16:59:43.325Z,93276.30
2023-03-30T17:04:50.093Z,93277.86
2023-03-30T17:09:56.989Z,93275.03
2023-03-30T17:15:04.578Z,93285.45
2023-03-30T17:20:27.198Z,93284.20
2023-03-30T17:25:36.011Z,93307.27
2023-03-30T17:30:42.803Z,93289.70
2023-03-30T17:35:54.080Z,93273.88
2023-03-30T17:41:00.876Z,93262.33
2023-03-30T17:46:07.917Z,93264.29
2023-03-30T17:51:14.876Z,93265.72
2023-03-30T17:56:21.772Z,93272.86
2023-03-30T18:01:29.100Z,93277.14
2023-03-30T18:06:37.629Z,93276.53
2023-03-30T18:11:45.156Z,93293.85
2023-03-30T18:16:52.013Z,93321.09
2023-03-30T18:21:58.800Z,93329.54
2023-03-30T18:27:05.947Z,93334.02
2023-03-30T18:32:12.678Z,93347.02
2023-03-30T18:37:19.407Z,93337.48
2023-03-30T18:42:26.843Z,93348.34
2023-03-30T18:47:33.788Z,93351.47
2023-03-30T18:52:40.513Z,93347.19
2023-03-30T18:57:47.523Z,93333.64
2023-03-30T19:02:57.184Z,93320.69
2023-03-30T19:08:04.152Z,93318.08
2023-03-30T19:13:14.770Z,93329.49
2023-03-30T19:18:22.240Z,93330.00
2023-03-30T19:23:30.652Z,93335.02
2023-03-30T19:28:40.284Z,93309.41
2023-03-30T19:33:47.339Z,93285.83
2023-03-30T19:38:54.757Z,93301.45
2023-03-30T19:44:02.050Z,93296.42
2023-03-30T19:49:08.794Z,93295.05
2023-03-30T19:54:17.237Z,93298.75
2023-03-30T19:59:24.297Z,93297.20
2023-03-30T20:04:31.717Z,93305.09
2023-03-30T20:09:40.692Z,93316.18
2023-03-30T20:14:48.005Z,93327.94
2023-03-30T20:19:54.858Z,93319.17
2023-03-30T20:25:03.834Z,93324.45
2023-03-30T20:30:12.036Z,93332.96
2023-03-30T20:35:20.054Z,93316.73
2023-03-30T20:40:27.613Z,93321.00
2023-03-30T20:45:36.052Z,93316.19
2023-03-30T20:50:44.404Z,93324.98
2023-03-30T20:55:51.104Z,93320.83
2023-03-30T21:00:59.633Z,93312.36
2023-03-30T21:06:08.182Z,93311.81
2023-03-30T21:11:15.029Z,93312.36
2023-03-30T21:16:21.917Z,93314.74
2023-03-30T21:21:28.989Z,93320.58
2023-03-30T21:26:35.687Z,93327.45
2023-03-30T21:31:42.611Z,93322.43
2023-03-30T21:36:50.569Z,93327.68
2023-03-30T21:41:59.077Z,93330.86
2023-03-30T21:47:05.917Z,93328.19
2023-03-30T21:52:13.218Z,93334.20
2023-03-30T21:57:19.953Z,93327.90
2023-03-30T22:02:27.774Z,93325.28
2023-03-30T22:07:35.025Z,93328.16
2023-03-30T22:12:42.146Z,93322.55
2023-03-30T22:17:50.113Z,93324.34
2023-03-30T22:22:58.307Z,93322.08
2023-03-30T22:28:06.131Z,93337.73
2023-03-30T22:33:15.004Z,93331.47
2023-03-30T22:38:22.414Z,93316.98
2023-03-30T22:43:29.665Z,93294.08
2023-03-30T22:48:37.117Z,93296.70
2023-03-30T22:53:44.286Z,93285.91
2023-03-30T22:58:52.009Z,93298.08
2023-03-30T23:04:00.669Z,93293.05
2023-03-30T23:09:07.843Z,93297.80
2023-03-30T23:14:15.961Z,93292.80
2023-03-30T23:19:22.872Z,93277.41
2023-03-30T23:24:29.609Z,93276.92
2023-03-30T23:29:36.518Z,93280.63
2023-03-30T23:34:46.070Z,93278.51
2023-03-30T23:39:53.591Z,93273.22
2023-03-30T23:45:00.821Z,93259.19
2023-03-30T23:50:10.479Z,93254.70
2023-03-30T23:55:18.669Z,93247.59
